sensor_id;sensor_type;location;lat;lon;timestamp;P1;durP1;ratioP1;P2;durP2;ratioP2
68250;SDS011;55066;51.560;4.642;2023-05-31T00:00:47;7.40;;;3.33;;
68250;SDS011;55066;51.560;4.642;2023-05-31T00:03:13;7.13;;;3.07;;
68250;SDS011;55066;51.560;4.642;2023-05-31T00:05:38;5.90;;;2.80;;
68250;SDS011;55066;51.560;4.642;2023-05-31T00:08:05;7.78;;;3.25;;
68250;SDS011;55066;51.560;4.642;2023-05-31T00:10:35;6.80;;;3.30;;
68250;SDS011;55066;51.560;4.642;2023-05-31T00:13:01;6.25;;;3.20;;
68250;SDS011;55066;51.560;4.642;2023-05-31T00:15:26;7.35;;;3.25;;
68250;SDS011;55066;51.560;4.642;2023-05-31T00:17:52;6.93;;;3.10;;
68250;SDS011;55066;51.560;4.642;2023-05-31T00:20:20;7.15;;;3.58;;
68250;SDS011;55066;51.560;4.642;2023-05-31T00:22:45;8.18;;;3.70;;
68250;SDS011;55066;51.560;4.642;2023-05-31T00:25:13;6.28;;;2.90;;
68250;SDS011;55066;51.560;4.642;2023-05-31T00:27:40;7.30;;;3.60;;
68250;SDS011;55066;51.560;4.642;2023-05-31T00:30:06;7.67;;;3.40;;
68250;SDS011;55066;51.560;4.642;2023-05-31T00:32:31;6.13;;;3.28;;
68250;SDS011;55066;51.560;4.642;2023-05-31T00:34:57;9.40;;;3.50;;
68250;SDS011;55066;51.560;4.642;2023-05-31T00:37:22;8.57;;;3.83;;
68250;SDS011;55066;51.560;4.642;2023-05-31T00:39:48;6.30;;;3.17;;
68250;SDS011;55066;51.560;4.642;2023-05-31T00:42:13;8.18;;;3.85;;
68250;SDS011;55066;51.560;4.642;2023-05-31T00:44:39;7.47;;;3.33;;
68250;SDS011;55066;51.560;4.642;2023-05-31T00:47:05;6.32;;;3.40;;
68250;SDS011;55066;51.560;4.642;2023-05-31T00:49:31;6.77;;;3.17;;
68250;SDS011;55066;51.560;4.642;2023-05-31T00:51:57;7.88;;;3.78;;
68250;SDS011;55066;51.560;4.642;2023-05-31T00:54:24;7.15;;;3.58;;
68250;SDS011;55066;51.560;4.642;2023-05-31T00:56:50;8.85;;;3.22;;
68250;SDS011;55066;51.560;4.642;2023-05-31T00:59:15;7.63;;;3.50;;
68250;SDS011;55066;51.560;4.642;2023-05-31T01:01:41;6.97;;;3.20;;
68250;SDS011;55066;51.560;4.642;2023-05-31T01:04:07;6.75;;;3.13;;
68250;SDS011;55066;51.560;4.642;2023-05-31T01:06:33;6.20;;;3.20;;
68250;SDS011;55066;51.560;4.642;2023-05-31T01:09:02;5.85;;;3.03;;
68250;SDS011;55066;51.560;4.642;2023-05-31T01:17:39;6.68;;;3.38;;
68250;SDS011;55066;51.560;4.642;2023-05-31T01:20:04;5.80;;;3.00;;
68250;SDS011;55066;51.560;4.642;2023-05-31T01:28:33;6.57;;;3.20;;
68250;SDS011;55066;51.560;4.642;2023-05-31T01:31:02;6.50;;;3.15;;
68250;SDS011;55066;51.560;4.642;2023-05-31T01:33:29;9.77;;;3.72;;
68250;SDS011;55066;51.560;4.642;2023-05-31T01:35:56;7.10;;;3.35;;
68250;SDS011;55066;51.560;4.642;2023-05-31T01:38:21;7.40;;;3.57;;
68250;SDS011;55066;51.560;4.642;2023-05-31T01:40:48;7.63;;;3.15;;
68250;SDS011;55066;51.560;4.642;2023-05-31T01:43:16;7.60;;;3.45;;
68250;SDS011;55066;51.560;4.642;2023-05-31T01:45:41;6.97;;;3.38;;
68250;SDS011;55066;51.560;4.642;2023-05-31T01:48:08;9.73;;;3.40;;
68250;SDS011;55066;51.560;4.642;2023-05-31T01:50:38;8.93;;;3.53;;
68250;SDS011;55066;51.560;4.642;2023-05-31T01:53:06;9.43;;;3.58;;
68250;SDS011;55066;51.560;4.642;2023-05-31T01:55:33;6.60;;;3.10;;
68250;SDS011;55066;51.560;4.642;2023-05-31T01:57:59;8.23;;;3.65;;
68250;SDS011;55066;51.560;4.642;2023-05-31T02:00:26;6.70;;;3.07;;
68250;SDS011;55066;51.560;4.642;2023-05-31T02:02:54;17.95;;;3.85;;
68250;SDS011;55066;51.560;4.642;2023-05-31T02:05:20;8.52;;;3.30;;
68250;SDS011;55066;51.560;4.642;2023-05-31T02:07:46;9.57;;;3.43;;
68250;SDS011;55066;51.560;4.642;2023-05-31T02:10:15;9.20;;;3.78;;
68250;SDS011;55066;51.560;4.642;2023-05-31T02:12:43;7.10;;;3.47;;
68250;SDS011;55066;51.560;4.642;2023-05-31T02:15:08;7.83;;;3.63;;
68250;SDS011;55066;51.560;4.642;2023-05-31T02:17:41;6.82;;;3.72;;
68250;SDS011;55066;51.560;4.642;2023-05-31T02:20:11;8.50;;;4.00;;
68250;SDS011;55066;51.560;4.642;2023-05-31T02:22:42;9.48;;;3.65;;
68250;SDS011;55066;51.560;4.642;2023-05-31T02:25:09;8.47;;;3.50;;
68250;SDS011;55066;51.560;4.642;2023-05-31T02:27:38;10.13;;;3.38;;
68250;SDS011;55066;51.560;4.642;2023-05-31T02:30:05;7.78;;;3.53;;
68250;SDS011;55066;51.560;4.642;2023-05-31T02:32:32;10.63;;;3.78;;
68250;SDS011;55066;51.560;4.642;2023-05-31T02:35:07;7.20;;;3.28;;
68250;SDS011;55066;51.560;4.642;2023-05-31T02:37:33;9.97;;;3.60;;
68250;SDS011;55066;51.560;4.642;2023-05-31T02:40:00;9.45;;;3.80;;
68250;SDS011;55066;51.560;4.642;2023-05-31T02:42:32;8.52;;;3.85;;
68250;SDS011;55066;51.560;4.642;2023-05-31T02:44:59;8.47;;;3.97;;
68250;SDS011;55066;51.560;4.642;2023-05-31T02:47:24;9.77;;;3.92;;
68250;SDS011;55066;51.560;4.642;2023-05-31T02:49:50;10.63;;;4.60;;
68250;SDS011;55066;51.560;4.642;2023-05-31T02:52:17;9.40;;;4.00;;
68250;SDS011;55066;51.560;4.642;2023-05-31T02:55:03;7.88;;;3.97;;
68250;SDS011;55066;51.560;4.642;2023-05-31T02:57:37;11.73;;;4.40;;
68250;SDS011;55066;51.560;4.642;2023-05-31T03:00:03;8.67;;;4.10;;
68250;SDS011;55066;51.560;4.642;2023-05-31T03:02:39;9.45;;;3.80;;
68250;SDS011;55066;51.560;4.642;2023-05-31T03:05:31;9.88;;;3.80;;
68250;SDS011;55066;51.560;4.642;2023-05-31T03:07:58;11.18;;;4.32;;
68250;SDS011;55066;51.560;4.642;2023-05-31T03:10:27;11.10;;;5.00;;
68250;SDS011;55066;51.560;4.642;2023-05-31T03:12:52;10.13;;;4.30;;
68250;SDS011;55066;51.560;4.642;2023-05-31T03:15:19;9.30;;;4.23;;
68250;SDS011;55066;51.560;4.642;2023-05-31T03:17:45;11.15;;;4.60;;
68250;SDS011;55066;51.560;4.642;2023-05-31T03:20:10;10.17;;;4.33;;
68250;SDS011;55066;51.560;4.642;2023-05-31T03:22:38;9.68;;;4.25;;
68250;SDS011;55066;51.560;4.642;2023-05-31T03:25:04;9.63;;;4.25;;
68250;SDS011;55066;51.560;4.642;2023-05-31T03:27:31;9.90;;;4.63;;
68250;SDS011;55066;51.560;4.642;2023-05-31T03:29:57;9.75;;;4.25;;
68250;SDS011;55066;51.560;4.642;2023-05-31T03:32:23;10.57;;;4.00;;
68250;SDS011;55066;51.560;4.642;2023-05-31T03:34:48;12.07;;;4.20;;
68250;SDS011;55066;51.560;4.642;2023-05-31T03:37:14;8.85;;;4.18;;
68250;SDS011;55066;51.560;4.642;2023-05-31T03:39:44;10.50;;;4.38;;
68250;SDS011;55066;51.560;4.642;2023-05-31T03:42:19;9.63;;;4.50;;
68250;SDS011;55066;51.560;4.642;2023-05-31T03:44:44;10.45;;;4.07;;
68250;SDS011;55066;51.560;4.642;2023-05-31T03:47:11;9.53;;;3.83;;
68250;SDS011;55066;51.560;4.642;2023-05-31T03:49:38;9.27;;;4.00;;
68250;SDS011;55066;51.560;4.642;2023-05-31T03:52:06;10.15;;;4.15;;
68250;SDS011;55066;51.560;4.642;2023-05-31T03:54:34;7.43;;;3.50;;
68250;SDS011;55066;51.560;4.642;2023-05-31T03:56:59;9.50;;;4.07;;
68250;SDS011;55066;51.560;4.642;2023-05-31T03:59:25;9.60;;;4.35;;
68250;SDS011;55066;51.560;4.642;2023-05-31T04:01:51;10.33;;;3.60;;
68250;SDS011;55066;51.560;4.642;2023-05-31T04:04:16;8.45;;;3.65;;
68250;SDS011;55066;51.560;4.642;2023-05-31T04:06:42;8.65;;;3.90;;
68250;SDS011;55066;51.560;4.642;2023-05-31T04:09:08;8.95;;;3.83;;
68250;SDS011;55066;51.560;4.642;2023-05-31T04:11:33;10.40;;;3.80;;
68250;SDS011;55066;51.560;4.642;2023-05-31T04:14:01;10.02;;;3.63;;
68250;SDS011;55066;51.560;4.642;2023-05-31T04:16:27;10.45;;;4.35;;
68250;SDS011;55066;51.560;4.642;2023-05-31T04:18:54;10.40;;;4.38;;
68250;SDS011;55066;51.560;4.642;2023-05-31T04:21:21;11.55;;;4.05;;
68250;SDS011;55066;51.560;4.642;2023-05-31T04:23:46;10.50;;;4.37;;
68250;SDS011;55066;51.560;4.642;2023-05-31T04:26:13;10.15;;;4.57;;
68250;SDS011;55066;51.560;4.642;2023-05-31T04:28:43;11.35;;;4.85;;
68250;SDS011;55066;51.560;4.642;2023-05-31T04:31:09;13.07;;;4.75;;
68250;SDS011;55066;51.560;4.642;2023-05-31T04:33:36;12.52;;;5.00;;
68250;SDS011;55066;51.560;4.642;2023-05-31T04:36:08;9.87;;;3.90;;
68250;SDS011;55066;51.560;4.642;2023-05-31T04:38:34;13.52;;;4.93;;
68250;SDS011;55066;51.560;4.642;2023-05-31T04:40:59;10.83;;;4.33;;
68250;SDS011;55066;51.560;4.642;2023-05-31T04:43:27;11.07;;;4.93;;
68250;SDS011;55066;51.560;4.642;2023-05-31T04:45:53;12.05;;;4.63;;
68250;SDS011;55066;51.560;4.642;2023-05-31T04:48:19;11.53;;;4.83;;
68250;SDS011;55066;51.560;4.642;2023-05-31T04:50:46;12.48;;;4.80;;
68250;SDS011;55066;51.560;4.642;2023-05-31T04:53:13;10.60;;;4.80;;
68250;SDS011;55066;51.560;4.642;2023-05-31T04:55:43;10.70;;;4.95;;
68250;SDS011;55066;51.560;4.642;2023-05-31T04:58:11;12.87;;;4.33;;
68250;SDS011;55066;51.560;4.642;2023-05-31T05:00:36;13.05;;;4.97;;
68250;SDS011;55066;51.560;4.642;2023-05-31T05:03:17;11.07;;;4.82;;
68250;SDS011;55066;51.560;4.642;2023-05-31T05:05:45;12.10;;;4.97;;
68250;SDS011;55066;51.560;4.642;2023-05-31T05:08:11;11.63;;;4.88;;
68250;SDS011;55066;51.560;4.642;2023-05-31T05:10:38;12.25;;;4.90;;
68250;SDS011;55066;51.560;4.642;2023-05-31T05:13:04;13.17;;;4.73;;
68250;SDS011;55066;51.560;4.642;2023-05-31T05:15:29;15.98;;;5.00;;
68250;SDS011;55066;51.560;4.642;2023-05-31T05:17:56;12.15;;;5.22;;
68250;SDS011;55066;51.560;4.642;2023-05-31T05:20:22;13.50;;;4.90;;
68250;SDS011;55066;51.560;4.642;2023-05-31T05:22:50;12.73;;;4.50;;
68250;SDS011;55066;51.560;4.642;2023-05-31T05:25:20;11.60;;;4.80;;
68250;SDS011;55066;51.560;4.642;2023-05-31T05:27:48;13.18;;;5.35;;
68250;SDS011;55066;51.560;4.642;2023-05-31T05:30:13;14.38;;;5.78;;
68250;SDS011;55066;51.560;4.642;2023-05-31T05:32:39;14.90;;;5.75;;
68250;SDS011;55066;51.560;4.642;2023-05-31T05:35:05;14.27;;;5.73;;
68250;SDS011;55066;51.560;4.642;2023-05-31T05:37:32;15.32;;;5.97;;
68250;SDS011;55066;51.560;4.642;2023-05-31T05:39:57;16.93;;;5.47;;
68250;SDS011;55066;51.560;4.642;2023-05-31T05:42:30;14.18;;;5.70;;
68250;SDS011;55066;51.560;4.642;2023-05-31T05:44:58;14.63;;;5.63;;
68250;SDS011;55066;51.560;4.642;2023-05-31T05:47:23;14.57;;;5.93;;
68250;SDS011;55066;51.560;4.642;2023-05-31T05:49:54;14.35;;;5.82;;
68250;SDS011;55066;51.560;4.642;2023-05-31T05:52:21;13.93;;;6.10;;
68250;SDS011;55066;51.560;4.642;2023-05-31T05:54:46;12.65;;;5.32;;
68250;SDS011;55066;51.560;4.642;2023-05-31T05:57:12;15.55;;;5.60;;
68250;SDS011;55066;51.560;4.642;2023-05-31T05:59:41;14.98;;;5.60;;
68250;SDS011;55066;51.560;4.642;2023-05-31T06:02:16;12.65;;;4.82;;
68250;SDS011;55066;51.560;4.642;2023-05-31T06:04:42;13.57;;;5.20;;
68250;SDS011;55066;51.560;4.642;2023-05-31T06:07:09;13.50;;;5.40;;
68250;SDS011;55066;51.560;4.642;2023-05-31T06:09:35;14.48;;;5.45;;
68250;SDS011;55066;51.560;4.642;2023-05-31T06:12:01;11.15;;;5.20;;
68250;SDS011;55066;51.560;4.642;2023-05-31T06:14:30;16.88;;;5.60;;
68250;SDS011;55066;51.560;4.642;2023-05-31T06:16:57;11.68;;;4.85;;
68250;SDS011;55066;51.560;4.642;2023-05-31T06:19:22;14.77;;;5.97;;
68250;SDS011;55066;51.560;4.642;2023-05-31T06:21:48;14.07;;;5.72;;
68250;SDS011;55066;51.560;4.642;2023-05-31T06:24:15;12.97;;;5.20;;
68250;SDS011;55066;51.560;4.642;2023-05-31T06:26:40;11.80;;;4.80;;
68250;SDS011;55066;51.560;4.642;2023-05-31T06:29:06;15.03;;;5.17;;
68250;SDS011;55066;51.560;4.642;2023-05-31T06:31:56;13.85;;;5.50;;
68250;SDS011;55066;51.560;4.642;2023-05-31T06:34:24;14.45;;;5.30;;
68250;SDS011;55066;51.560;4.642;2023-05-31T06:36:53;11.77;;;6.13;;
68250;SDS011;55066;51.560;4.642;2023-05-31T06:39:21;20.23;;;6.20;;
68250;SDS011;55066;51.560;4.642;2023-05-31T06:41:48;12.82;;;4.88;;
68250;SDS011;55066;51.560;4.642;2023-05-31T06:44:36;13.50;;;5.82;;
68250;SDS011;55066;51.560;4.642;2023-05-31T06:47:09;15.23;;;6.05;;
68250;SDS011;55066;51.560;4.642;2023-05-31T06:50:05;18.10;;;6.38;;
68250;SDS011;55066;51.560;4.642;2023-05-31T06:53:01;14.37;;;5.70;;
68250;SDS011;55066;51.560;4.642;2023-05-31T06:55:36;11.77;;;5.35;;
68250;SDS011;55066;51.560;4.642;2023-05-31T06:58:04;13.88;;;5.70;;
68250;SDS011;55066;51.560;4.642;2023-05-31T07:00:32;13.18;;;5.55;;
68250;SDS011;55066;51.560;4.642;2023-05-31T07:03:00;15.73;;;6.47;;
68250;SDS011;55066;51.560;4.642;2023-05-31T07:05:28;14.13;;;5.90;;
68250;SDS011;55066;51.560;4.642;2023-05-31T07:07:54;12.57;;;5.13;;
68250;SDS011;55066;51.560;4.642;2023-05-31T07:10:21;14.52;;;6.10;;
68250;SDS011;55066;51.560;4.642;2023-05-31T07:12:49;14.95;;;5.90;;
68250;SDS011;55066;51.560;4.642;2023-05-31T07:15:19;18.00;;;6.38;;
68250;SDS011;55066;51.560;4.642;2023-05-31T07:17:45;15.07;;;5.97;;
68250;SDS011;55066;51.560;4.642;2023-05-31T07:20:10;12.57;;;5.40;;
68250;SDS011;55066;51.560;4.642;2023-05-31T07:22:36;16.10;;;6.38;;
68250;SDS011;55066;51.560;4.642;2023-05-31T07:25:02;14.57;;;5.80;;
68250;SDS011;55066;51.560;4.642;2023-05-31T07:27:29;14.52;;;5.15;;
68250;SDS011;55066;51.560;4.642;2023-05-31T07:29:55;13.38;;;5.90;;
68250;SDS011;55066;51.560;4.642;2023-05-31T07:32:20;12.23;;;5.80;;
68250;SDS011;55066;51.560;4.642;2023-05-31T07:34:46;13.27;;;6.10;;
68250;SDS011;55066;51.560;4.642;2023-05-31T07:37:11;23.20;;;5.77;;
68250;SDS011;55066;51.560;4.642;2023-05-31T07:39:38;15.50;;;5.90;;
68250;SDS011;55066;51.560;4.642;2023-05-31T07:42:03;14.47;;;6.20;;
68250;SDS011;55066;51.560;4.642;2023-05-31T07:44:29;13.10;;;5.90;;
68250;SDS011;55066;51.560;4.642;2023-05-31T07:46:54;17.13;;;7.03;;
68250;SDS011;55066;51.560;4.642;2023-05-31T07:49:20;18.90;;;6.28;;
68250;SDS011;55066;51.560;4.642;2023-05-31T07:51:45;12.73;;;5.63;;
68250;SDS011;55066;51.560;4.642;2023-05-31T07:54:11;14.03;;;6.13;;
68250;SDS011;55066;51.560;4.642;2023-05-31T07:56:37;13.48;;;6.13;;
68250;SDS011;55066;51.560;4.642;2023-05-31T07:59:02;11.73;;;5.70;;
68250;SDS011;55066;51.560;4.642;2023-05-31T08:01:27;13.67;;;6.37;;
68250;SDS011;55066;51.560;4.642;2023-05-31T08:03:54;14.32;;;5.63;;
68250;SDS011;55066;51.560;4.642;2023-05-31T08:06:20;17.03;;;6.60;;
68250;SDS011;55066;51.560;4.642;2023-05-31T08:08:45;14.43;;;5.60;;
68250;SDS011;55066;51.560;4.642;2023-05-31T08:11:11;14.13;;;5.80;;
68250;SDS011;55066;51.560;4.642;2023-05-31T08:13:37;14.98;;;6.30;;
68250;SDS011;55066;51.560;4.642;2023-05-31T08:16:04;14.80;;;6.07;;
68250;SDS011;55066;51.560;4.642;2023-05-31T08:18:29;16.02;;;6.03;;
68250;SDS011;55066;51.560;4.642;2023-05-31T08:20:55;13.67;;;5.70;;
68250;SDS011;55066;51.560;4.642;2023-05-31T08:23:20;16.03;;;6.07;;
68250;SDS011;55066;51.560;4.642;2023-05-31T08:25:46;12.20;;;5.40;;
68250;SDS011;55066;51.560;4.642;2023-05-31T08:28:12;12.80;;;5.53;;
68250;SDS011;55066;51.560;4.642;2023-05-31T08:30:38;14.07;;;6.00;;
68250;SDS011;55066;51.560;4.642;2023-05-31T08:33:03;13.20;;;5.93;;
68250;SDS011;55066;51.560;4.642;2023-05-31T08:35:29;12.43;;;5.53;;
68250;SDS011;55066;51.560;4.642;2023-05-31T08:37:55;18.30;;;6.00;;
68250;SDS011;55066;51.560;4.642;2023-05-31T08:40:20;15.02;;;6.32;;
68250;SDS011;55066;51.560;4.642;2023-05-31T08:42:47;14.20;;;6.00;;
68250;SDS011;55066;51.560;4.642;2023-05-31T08:45:19;13.27;;;5.47;;
68250;SDS011;55066;51.560;4.642;2023-05-31T08:47:47;17.88;;;6.30;;
68250;SDS011;55066;51.560;4.642;2023-05-31T08:50:21;13.10;;;6.38;;
68250;SDS011;55066;51.560;4.642;2023-05-31T08:52:46;12.80;;;5.72;;
68250;SDS011;55066;51.560;4.642;2023-05-31T08:55:15;11.87;;;6.00;;
68250;SDS011;55066;51.560;4.642;2023-05-31T08:57:42;15.07;;;6.22;;
68250;SDS011;55066;51.560;4.642;2023-05-31T09:00:11;14.43;;;6.40;;
68250;SDS011;55066;51.560;4.642;2023-05-31T09:02:37;15.38;;;6.32;;
68250;SDS011;55066;51.560;4.642;2023-05-31T09:05:03;13.87;;;5.80;;
68250;SDS011;55066;51.560;4.642;2023-05-31T09:07:32;13.85;;;6.28;;
68250;SDS011;55066;51.560;4.642;2023-05-31T09:09:57;13.40;;;5.70;;
68250;SDS011;55066;51.560;4.642;2023-05-31T09:12:23;13.27;;;5.80;;
68250;SDS011;55066;51.560;4.642;2023-05-31T09:14:49;14.50;;;6.60;;
68250;SDS011;55066;51.560;4.642;2023-05-31T09:17:15;14.00;;;6.05;;
68250;SDS011;55066;51.560;4.642;2023-05-31T09:19:48;13.70;;;5.83;;
68250;SDS011;55066;51.560;4.642;2023-05-31T09:22:18;14.48;;;5.50;;
68250;SDS011;55066;51.560;4.642;2023-05-31T09:24:55;14.45;;;5.72;;
68250;SDS011;55066;51.560;4.642;2023-05-31T09:27:22;14.32;;;6.30;;
68250;SDS011;55066;51.560;4.642;2023-05-31T09:29:52;16.52;;;6.28;;
68250;SDS011;55066;51.560;4.642;2023-05-31T09:32:22;15.97;;;6.73;;
68250;SDS011;55066;51.560;4.642;2023-05-31T09:34:48;16.52;;;6.25;;
68250;SDS011;55066;51.560;4.642;2023-05-31T09:37:24;17.23;;;5.68;;
68250;SDS011;55066;51.560;4.642;2023-05-31T09:39:56;13.57;;;6.20;;
68250;SDS011;55066;51.560;4.642;2023-05-31T09:42:25;14.80;;;6.40;;
68250;SDS011;55066;51.560;4.642;2023-05-31T09:44:58;11.73;;;5.43;;
68250;SDS011;55066;51.560;4.642;2023-05-31T09:47:26;11.45;;;5.32;;
68250;SDS011;55066;51.560;4.642;2023-05-31T09:49:53;12.57;;;5.90;;
68250;SDS011;55066;51.560;4.642;2023-05-31T09:52:27;14.80;;;6.53;;
68250;SDS011;55066;51.560;4.642;2023-05-31T09:54:55;13.25;;;5.57;;
68250;SDS011;55066;51.560;4.642;2023-05-31T09:57:30;11.02;;;5.28;;
68250;SDS011;55066;51.560;4.642;2023-05-31T09:59:58;11.45;;;5.22;;
68250;SDS011;55066;51.560;4.642;2023-05-31T10:02:26;11.13;;;5.20;;
68250;SDS011;55066;51.560;4.642;2023-05-31T10:13:03;12.85;;;5.07;;
68250;SDS011;55066;51.560;4.642;2023-05-31T10:15:31;14.35;;;4.75;;
68250;SDS011;55066;51.560;4.642;2023-05-31T10:18:03;11.82;;;5.35;;
68250;SDS011;55066;51.560;4.642;2023-05-31T10:20:38;9.80;;;4.70;;
68250;SDS011;55066;51.560;4.642;2023-05-31T10:23:29;9.98;;;4.53;;
68250;SDS011;55066;51.560;4.642;2023-05-31T10:26:09;11.80;;;4.45;;
68250;SDS011;55066;51.560;4.642;2023-05-31T10:28:59;12.27;;;4.10;;
68250;SDS011;55066;51.560;4.642;2023-05-31T10:31:35;10.93;;;4.55;;
68250;SDS011;55066;51.560;4.642;2023-05-31T10:34:22;10.90;;;4.70;;
68250;SDS011;55066;51.560;4.642;2023-05-31T10:36:49;8.55;;;3.90;;
68250;SDS011;55066;51.560;4.642;2023-05-31T10:44:53;10.55;;;4.25;;
68250;SDS011;55066;51.560;4.642;2023-05-31T10:47:45;11.83;;;4.00;;
68250;SDS011;55066;51.560;4.642;2023-05-31T10:50:18;11.38;;;3.63;;
68250;SDS011;55066;51.560;4.642;2023-05-31T10:52:51;12.35;;;4.28;;
68250;SDS011;55066;51.560;4.642;2023-05-31T10:55:18;8.63;;;4.35;;
68250;SDS011;55066;51.560;4.642;2023-05-31T10:57:50;11.75;;;4.30;;
68250;SDS011;55066;51.560;4.642;2023-05-31T11:00:33;12.23;;;4.00;;
68250;SDS011;55066;51.560;4.642;2023-05-31T11:03:11;9.95;;;3.97;;
68250;SDS011;55066;51.560;4.642;2023-05-31T11:05:37;10.75;;;4.00;;
68250;SDS011;55066;51.560;4.642;2023-05-31T11:08:12;10.73;;;3.80;;
68250;SDS011;55066;51.560;4.642;2023-05-31T11:10:39;11.10;;;3.50;;
68250;SDS011;55066;51.560;4.642;2023-05-31T11:13:06;10.63;;;3.63;;
68250;SDS011;55066;51.560;4.642;2023-05-31T11:15:42;10.18;;;3.70;;
68250;SDS011;55066;51.560;4.642;2023-05-31T11:18:14;8.98;;;3.70;;
68250;SDS011;55066;51.560;4.642;2023-05-31T11:20:51;8.43;;;3.50;;
68250;SDS011;55066;51.560;4.642;2023-05-31T11:28:49;8.17;;;3.67;;
68250;SDS011;55066;51.560;4.642;2023-05-31T11:34:26;7.95;;;3.40;;
68250;SDS011;55066;51.560;4.642;2023-05-31T11:36:56;7.45;;;3.08;;
68250;SDS011;55066;51.560;4.642;2023-05-31T11:39:24;12.00;;;3.53;;
68250;SDS011;55066;51.560;4.642;2023-05-31T11:41:56;8.17;;;3.40;;
68250;SDS011;55066;51.560;4.642;2023-05-31T11:44:26;11.38;;;2.92;;
68250;SDS011;55066;51.560;4.642;2023-05-31T11:47:05;8.77;;;2.92;;
68250;SDS011;55066;51.560;4.642;2023-05-31T11:49:33;8.55;;;3.20;;
68250;SDS011;55066;51.560;4.642;2023-05-31T11:51:59;11.33;;;2.70;;
68250;SDS011;55066;51.560;4.642;2023-05-31T11:54:28;8.27;;;3.25;;
68250;SDS011;55066;51.560;4.642;2023-05-31T11:57:05;17.27;;;3.35;;
68250;SDS011;55066;51.560;4.642;2023-05-31T11:59:35;10.57;;;3.20;;
68250;SDS011;55066;51.560;4.642;2023-05-31T12:02:01;8.07;;;2.70;;
68250;SDS011;55066;51.560;4.642;2023-05-31T12:04:35;7.90;;;3.20;;
68250;SDS011;55066;51.560;4.642;2023-05-31T12:07:02;8.55;;;2.70;;
68250;SDS011;55066;51.560;4.642;2023-05-31T12:09:32;6.82;;;2.70;;
68250;SDS011;55066;51.560;4.642;2023-05-31T12:11:59;7.25;;;2.45;;
68250;SDS011;55066;51.560;4.642;2023-05-31T12:14:28;8.05;;;2.83;;
68250;SDS011;55066;51.560;4.642;2023-05-31T12:16:53;12.17;;;3.10;;
68250;SDS011;55066;51.560;4.642;2023-05-31T12:19:20;10.10;;;3.10;;
68250;SDS011;55066;51.560;4.642;2023-05-31T12:21:46;7.38;;;2.50;;
68250;SDS011;55066;51.560;4.642;2023-05-31T12:24:16;7.80;;;2.67;;
68250;SDS011;55066;51.560;4.642;2023-05-31T12:26:45;7.32;;;2.80;;
68250;SDS011;55066;51.560;4.642;2023-05-31T12:29:16;7.38;;;2.40;;
68250;SDS011;55066;51.560;4.642;2023-05-31T12:31:43;7.30;;;2.70;;
68250;SDS011;55066;51.560;4.642;2023-05-31T12:34:17;9.57;;;2.95;;
68250;SDS011;55066;51.560;4.642;2023-05-31T12:36:47;6.97;;;2.90;;
68250;SDS011;55066;51.560;4.642;2023-05-31T12:39:22;8.10;;;2.50;;
68250;SDS011;55066;51.560;4.642;2023-05-31T12:41:53;12.15;;;2.90;;
68250;SDS011;55066;51.560;4.642;2023-05-31T12:44:20;6.67;;;2.67;;
68250;SDS011;55066;51.560;4.642;2023-05-31T12:46:46;5.30;;;2.38;;
68250;SDS011;55066;51.560;4.642;2023-05-31T12:49:18;6.32;;;2.63;;
68250;SDS011;55066;51.560;4.642;2023-05-31T12:51:43;7.22;;;2.40;;
68250;SDS011;55066;51.560;4.642;2023-05-31T12:54:17;6.77;;;2.43;;
68250;SDS011;55066;51.560;4.642;2023-05-31T12:56:43;8.18;;;2.50;;
68250;SDS011;55066;51.560;4.642;2023-05-31T12:59:09;7.53;;;2.40;;
68250;SDS011;55066;51.560;4.642;2023-05-31T13:01:35;6.68;;;2.47;;
68250;SDS011;55066;51.560;4.642;2023-05-31T13:04:03;5.85;;;2.60;;
68250;SDS011;55066;51.560;4.642;2023-05-31T13:06:31;6.93;;;2.87;;
68250;SDS011;55066;51.560;4.642;2023-05-31T13:08:57;6.05;;;2.58;;
68250;SDS011;55066;51.560;4.642;2023-05-31T13:11:23;9.00;;;2.88;;
68250;SDS011;55066;51.560;4.642;2023-05-31T13:13:48;10.27;;;3.10;;
68250;SDS011;55066;51.560;4.642;2023-05-31T13:16:13;5.20;;;2.70;;
68250;SDS011;55066;51.560;4.642;2023-05-31T13:18:40;6.82;;;2.78;;
68250;SDS011;55066;51.560;4.642;2023-05-31T13:21:05;8.10;;;2.70;;
68250;SDS011;55066;51.560;4.642;2023-05-31T13:23:31;7.70;;;3.03;;
68250;SDS011;55066;51.560;4.642;2023-05-31T13:25:59;9.25;;;2.55;;
68250;SDS011;55066;51.560;4.642;2023-05-31T13:28:24;8.30;;;2.60;;
68250;SDS011;55066;51.560;4.642;2023-05-31T13:30:50;9.57;;;2.57;;
68250;SDS011;55066;51.560;4.642;2023-05-31T13:33:16;9.45;;;2.78;;
68250;SDS011;55066;51.560;4.642;2023-05-31T13:35:41;10.53;;;2.63;;
68250;SDS011;55066;51.560;4.642;2023-05-31T13:38:08;8.98;;;3.05;;
68250;SDS011;55066;51.560;4.642;2023-05-31T13:40:34;8.73;;;2.85;;
68250;SDS011;55066;51.560;4.642;2023-05-31T13:43:02;6.22;;;2.33;;
68250;SDS011;55066;51.560;4.642;2023-05-31T13:45:27;9.93;;;2.83;;
68250;SDS011;55066;51.560;4.642;2023-05-31T13:47:53;7.00;;;2.90;;
68250;SDS011;55066;51.560;4.642;2023-05-31T13:50:18;7.57;;;3.10;;
68250;SDS011;55066;51.560;4.642;2023-05-31T13:52:44;7.95;;;3.05;;
68250;SDS011;55066;51.560;4.642;2023-05-31T13:55:09;6.57;;;2.30;;
68250;SDS011;55066;51.560;4.642;2023-05-31T13:57:36;8.25;;;2.72;;
68250;SDS011;55066;51.560;4.642;2023-05-31T14:00:02;7.43;;;2.50;;
68250;SDS011;55066;51.560;4.642;2023-05-31T14:02:35;9.50;;;3.00;;
68250;SDS011;55066;51.560;4.642;2023-05-31T14:05:01;8.27;;;2.70;;
68250;SDS011;55066;51.560;4.642;2023-05-31T14:07:28;6.67;;;3.13;;
68250;SDS011;55066;51.560;4.642;2023-05-31T14:09:54;7.90;;;3.08;;
68250;SDS011;55066;51.560;4.642;2023-05-31T14:12:20;7.35;;;2.53;;
68250;SDS011;55066;51.560;4.642;2023-05-31T14:14:45;8.80;;;2.90;;
68250;SDS011;55066;51.560;4.642;2023-05-31T14:17:11;7.03;;;2.93;;
68250;SDS011;55066;51.560;4.642;2023-05-31T14:19:36;9.83;;;2.90;;
68250;SDS011;55066;51.560;4.642;2023-05-31T14:22:02;7.40;;;3.00;;
68250;SDS011;55066;51.560;4.642;2023-05-31T14:24:27;9.90;;;2.87;;
68250;SDS011;55066;51.560;4.642;2023-05-31T14:26:53;6.03;;;2.97;;
68250;SDS011;55066;51.560;4.642;2023-05-31T14:29:19;8.47;;;3.07;;
68250;SDS011;55066;51.560;4.642;2023-05-31T14:31:46;6.55;;;3.00;;
68250;SDS011;55066;51.560;4.642;2023-05-31T14:34:11;8.87;;;3.00;;
68250;SDS011;55066;51.560;4.642;2023-05-31T14:36:36;7.43;;;3.10;;
68250;SDS011;55066;51.560;4.642;2023-05-31T14:39:02;8.63;;;3.30;;
68250;SDS011;55066;51.560;4.642;2023-05-31T14:41:29;9.68;;;3.00;;
68250;SDS011;55066;51.560;4.642;2023-05-31T14:43:54;10.43;;;2.78;;
68250;SDS011;55066;51.560;4.642;2023-05-31T14:46:20;10.97;;;3.40;;
68250;SDS011;55066;51.560;4.642;2023-05-31T14:48:45;6.97;;;3.50;;
68250;SDS011;55066;51.560;4.642;2023-05-31T14:51:11;8.73;;;3.80;;
68250;SDS011;55066;51.560;4.642;2023-05-31T14:53:36;6.57;;;3.03;;
68250;SDS011;55066;51.560;4.642;2023-05-31T14:56:02;8.40;;;3.35;;
68250;SDS011;55066;51.560;4.642;2023-05-31T14:58:27;8.77;;;3.70;;
68250;SDS011;55066;51.560;4.642;2023-05-31T15:00:56;11.23;;;4.25;;
68250;SDS011;55066;51.560;4.642;2023-05-31T15:03:31;9.55;;;4.75;;
68250;SDS011;55066;51.560;4.642;2023-05-31T15:05:56;12.87;;;4.53;;
68250;SDS011;55066;51.560;4.642;2023-05-31T15:08:22;9.67;;;3.90;;
68250;SDS011;55066;51.560;4.642;2023-05-31T15:10:49;9.93;;;4.80;;
68250;SDS011;55066;51.560;4.642;2023-05-31T15:13:15;10.32;;;4.68;;
68250;SDS011;55066;51.560;4.642;2023-05-31T15:15:41;12.70;;;5.10;;
68250;SDS011;55066;51.560;4.642;2023-05-31T15:18:06;12.27;;;5.13;;
68250;SDS011;55066;51.560;4.642;2023-05-31T15:20:33;11.32;;;4.85;;